Meteo Giornale » Osservazioni meteo Italia » Torino-Caselle

ore: 09:20 - Osservazioni Meteo Torino-Caselle
Lat. 45° 13' N Lon. 7° 39' E Alt. 301 metri s.l.m.

molto_nuvoloso Europe/Rome

7 °C

Molto Nuvoloso

Temp. 24 Ore

2 °C

13 °C

Nord

7.4 Km/h

Dew point 1 °C

Umidità 65 %

Visibilità  10 Km

Il sole sorge alle ore 07:24

Il sole tramonta alle ore 17:02

Data e Ora Cielo e Fenomeni T °C DP °C Um. % Pres. hPa Vis. km Vento km/h
Oggi h: 09:20 molto_nuvoloso Molto Nuvoloso 7 1 65 1009 10 N 7.4
Oggi h: 08:50 molto_nuvoloso Molto Nuvoloso 5 2 80 1009 10 N 5.5
Oggi h: 08:20 molto_nuvoloso Molto Nuvoloso 5 2 80 1009 10 E 7.4
Oggi h: 07:50 molto_nuvoloso Molto Nuvoloso 6 0 65 1008 10 N 9.3
Oggi h: 07:20 molto_nuvoloso Molto Nuvoloso 5 1 75 1008 10 N 9.3
Oggi h: 06:50 coperto Coperto 5 0 70 1008 10 O/NO 7.4
Oggi h: 06:20 coperto Coperto 6 1 70 1008 10 N/NO 9.3
Oggi h: 05:50 molto_nuvoloso Molto Nuvoloso 6 1 70 1007 6 N 9.3
Oggi h: 04:50 molto_nuvoloso Molto Nuvoloso 4 -2 64 1007 10 O/NO 11.1
Oggi h: 04:20 molto_nuvoloso Molto Nuvoloso 3 -3 64 1007 10 O/NO 7.4
Oggi h: 03:50 nuvoloso Nuvoloso 3 -3 64 1007 10 N 5.5
Oggi h: 03:20 poco_nuvoloso Poco Nuvoloso 2 -3 69 1007 10 N 5.5
Oggi h: 02:50 sereno Sereno 3 -2 69 1006 10 N 5.5
Oggi h: 02:20 sereno Sereno 3 -1 74 1006 10 N 3.7
Oggi h: 01:50 sereno Sereno 5 -2 60 1006 10 N 3.7
Oggi h: 01:20 sereno Sereno 4 -2 64 1006 10 N 3.7
Oggi h: 00:50 sereno Sereno 4 -3 60 1005 10 N 5.5
Oggi h: 00:20 sereno Sereno 3 -3 64 1005 10 N 11.1
Ieri h: 23:50 sereno Sereno 3 -2 69 1005 10 N/NO 7.4
Ieri h: 23:20 sereno Sereno 4 -2 64 1005 10 N 5.5
Ieri h: 22:50 sereno Sereno 4 -2 64 1005 10 N 5.5
Ieri h: 22:20 sereno Sereno 5 -2 60 1005 10 N 3.7
Ieri h: 21:50 sereno Sereno 3 -1 74 1005 10 N 3.7
Ieri h: 21:20 sereno Sereno 4 -2 64 1004 10 N 3.7
Ieri h: 20:50 sereno Sereno 5 -2 60 1004 10 O/NO 9.3
Ieri h: 20:20 sereno Sereno 6 -1 60 1004 10 O/NO 13
Ieri h: 19:50 sereno Sereno 6 -1 60 1003 10 O/NO 13
Ieri h: 19:20 sereno Sereno 7 -0 60 1003 10 NO 7.4
Ieri h: 18:50 sereno Sereno 8 0 56 1003 10 O/NO 11.1
Ieri h: 18:20 sereno Sereno 8 -2 49 1002 10 N 5.5
Ieri h: 17:50 sereno Sereno 10 -3 39 1002 10 N 1.8
Ieri h: 17:20 sereno Sereno 11 -4 34 1001 10 N 3.7
Ieri h: 16:50 sereno Sereno 12 -4 32 1001 10 N 3.7
Ieri h: 16:20 sereno Sereno 12 -3 34 1001 10 N 3.7
Ieri h: 15:50 sereno Sereno 13 -4 30 1000 10 O/SO 7.4
Ieri h: 15:20 sereno Sereno 13 -5 28 1000 10 O/SO 7.4
Ieri h: 14:50 sereno Sereno 13 -3 32 1000 10 N 5.5
Ieri h: 14:20 sereno Sereno 13 -3 32 1000 10 S/SO 7.4
Ieri h: 13:50 sereno Sereno 13 -1 37 1000 10 S 11.1
Ieri h: 13:20 sereno Sereno 12 -4 32 1000 10 S 13
Ieri h: 12:50 sereno Sereno 12 -3 34 999 10 S 9.3
Ieri h: 12:20 sereno Sereno 12 -2 37 999 10 N 5.5
Ieri h: 11:50 sereno Sereno 12 -0 43 999 10 N 5.5
Ieri h: 11:20 sereno Sereno 11 -2 40 999 10 N 5.5
Ieri h: 10:50 sereno Sereno 9 0 53 999 10 N 3.7
Ieri h: 10:20 sereno Sereno 9 1 57 999 10 N 3.7
Ieri h: 09:50 sereno Sereno 8 0 56 999 10 N 1.8
Ieri h: 09:20 sereno Sereno 6 -1 60 999 10 O/NO 9.3
Ieri h: 08:50 sereno Sereno 4 -2 64 998 10 N 5.5